sensor_id;sensor_type;location;lat;lon;timestamp;P1;durP1;ratioP1;P2;durP2;ratioP2
69185;SDS011;56298;49.246;9.410;2024-01-30T00:01:05;19.50;;;11.40;;
69185;SDS011;56298;49.246;9.410;2024-01-30T00:03:31;20.90;;;11.50;;
69185;SDS011;56298;49.246;9.410;2024-01-30T00:05:56;21.60;;;11.90;;
69185;SDS011;56298;49.246;9.410;2024-01-30T00:08:21;20.40;;;11.30;;
69185;SDS011;56298;49.246;9.410;2024-01-30T00:10:46;19.37;;;11.33;;
69185;SDS011;56298;49.246;9.410;2024-01-30T00:13:12;19.97;;;11.40;;
69185;SDS011;56298;49.246;9.410;2024-01-30T00:15:38;18.90;;;11.43;;
69185;SDS011;56298;49.246;9.410;2024-01-30T00:18:04;20.00;;;11.40;;
69185;SDS011;56298;49.246;9.410;2024-01-30T00:20:29;19.37;;;11.33;;
69185;SDS011;56298;49.246;9.410;2024-01-30T00:22:54;19.60;;;11.07;;
69185;SDS011;56298;49.246;9.410;2024-01-30T00:25:19;20.97;;;11.17;;
69185;SDS011;56298;49.246;9.410;2024-01-30T00:27:45;18.60;;;11.13;;
69185;SDS011;56298;49.246;9.410;2024-01-30T00:30:10;19.07;;;11.53;;
69185;SDS011;56298;49.246;9.410;2024-01-30T00:32:36;18.92;;;11.63;;
69185;SDS011;56298;49.246;9.410;2024-01-30T00:35:01;19.43;;;11.80;;
69185;SDS011;56298;49.246;9.410;2024-01-30T00:37:27;19.73;;;11.25;;
69185;SDS011;56298;49.246;9.410;2024-01-30T00:39:52;20.53;;;11.80;;
69185;SDS011;56298;49.246;9.410;2024-01-30T00:42:17;20.13;;;12.00;;
69185;SDS011;56298;49.246;9.410;2024-01-30T00:44:42;22.00;;;12.23;;
69185;SDS011;56298;49.246;9.410;2024-01-30T00:47:08;21.57;;;12.53;;
69185;SDS011;56298;49.246;9.410;2024-01-30T00:49:33;20.45;;;11.88;;
69185;SDS011;56298;49.246;9.410;2024-01-30T00:51:59;22.37;;;12.30;;
69185;SDS011;56298;49.246;9.410;2024-01-30T00:54:25;20.98;;;11.70;;
69185;SDS011;56298;49.246;9.410;2024-01-30T00:56:50;21.07;;;12.83;;
69185;SDS011;56298;49.246;9.410;2024-01-30T00:59:15;21.60;;;12.10;;
69185;SDS011;56298;49.246;9.410;2024-01-30T01:01:40;21.17;;;13.47;;
69185;SDS011;56298;49.246;9.410;2024-01-30T01:04:05;22.03;;;12.50;;
69185;SDS011;56298;49.246;9.410;2024-01-30T01:09:08;20.63;;;12.70;;
69185;SDS011;56298;49.246;9.410;2024-01-30T01:11:33;20.73;;;13.07;;
69185;SDS011;56298;49.246;9.410;2024-01-30T01:13:59;20.20;;;12.87;;
69185;SDS011;56298;49.246;9.410;2024-01-30T01:16:24;20.37;;;12.23;;
69185;SDS011;56298;49.246;9.410;2024-01-30T01:18:49;20.63;;;12.80;;
69185;SDS011;56298;49.246;9.410;2024-01-30T01:21:14;20.33;;;12.30;;
69185;SDS011;56298;49.246;9.410;2024-01-30T01:23:40;21.53;;;12.67;;
69185;SDS011;56298;49.246;9.410;2024-01-30T01:26:05;21.10;;;12.33;;
69185;SDS011;56298;49.246;9.410;2024-01-30T01:28:30;21.53;;;12.40;;
69185;SDS011;56298;49.246;9.410;2024-01-30T01:30:55;19.77;;;11.90;;
69185;SDS011;56298;49.246;9.410;2024-01-30T01:33:24;20.98;;;12.73;;
69185;SDS011;56298;49.246;9.410;2024-01-30T01:35:49;20.13;;;12.50;;
69185;SDS011;56298;49.246;9.410;2024-01-30T01:38:15;21.10;;;12.53;;
69185;SDS011;56298;49.246;9.410;2024-01-30T01:40:40;19.50;;;12.20;;
69185;SDS011;56298;49.246;9.410;2024-01-30T01:43:06;21.70;;;12.23;;
69185;SDS011;56298;49.246;9.410;2024-01-30T01:45:31;19.60;;;12.00;;
69185;SDS011;56298;49.246;9.410;2024-01-30T01:47:56;21.93;;;12.70;;
69185;SDS011;56298;49.246;9.410;2024-01-30T01:50:21;21.50;;;11.83;;
69185;SDS011;56298;49.246;9.410;2024-01-30T01:52:48;21.92;;;13.00;;
69185;SDS011;56298;49.246;9.410;2024-01-30T01:55:14;20.20;;;12.93;;
69185;SDS011;56298;49.246;9.410;2024-01-30T01:57:44;22.48;;;13.43;;
69185;SDS011;56298;49.246;9.410;2024-01-30T02:00:09;21.65;;;12.80;;
69185;SDS011;56298;49.246;9.410;2024-01-30T02:02:35;21.42;;;12.90;;
69185;SDS011;56298;49.246;9.410;2024-01-30T02:05:01;21.92;;;14.20;;
69185;SDS011;56298;49.246;9.410;2024-01-30T02:07:27;20.97;;;14.37;;
69185;SDS011;56298;49.246;9.410;2024-01-30T02:09:53;23.55;;;13.02;;
69185;SDS011;56298;49.246;9.410;2024-01-30T02:12:19;24.33;;;14.93;;
69185;SDS011;56298;49.246;9.410;2024-01-30T02:14:45;25.23;;;17.43;;
69185;SDS011;56298;49.246;9.410;2024-01-30T02:17:11;24.60;;;16.92;;
69185;SDS011;56298;49.246;9.410;2024-01-30T02:19:36;23.67;;;16.83;;
69185;SDS011;56298;49.246;9.410;2024-01-30T02:22:02;22.17;;;15.33;;
69185;SDS011;56298;49.246;9.410;2024-01-30T02:24:28;21.67;;;15.17;;
69185;SDS011;56298;49.246;9.410;2024-01-30T02:26:53;26.43;;;15.70;;
69185;SDS011;56298;49.246;9.410;2024-01-30T02:29:18;21.13;;;14.73;;
69185;SDS011;56298;49.246;9.410;2024-01-30T02:31:43;21.97;;;15.43;;
69185;SDS011;56298;49.246;9.410;2024-01-30T02:34:10;23.55;;;15.93;;
69185;SDS011;56298;49.246;9.410;2024-01-30T02:36:36;23.47;;;15.33;;
69185;SDS011;56298;49.246;9.410;2024-01-30T02:39:01;24.17;;;18.73;;
69185;SDS011;56298;49.246;9.410;2024-01-30T02:41:26;24.50;;;17.83;;
69185;SDS011;56298;49.246;9.410;2024-01-30T02:43:52;22.00;;;16.90;;
69185;SDS011;56298;49.246;9.410;2024-01-30T02:46:17;24.03;;;17.93;;
69185;SDS011;56298;49.246;9.410;2024-01-30T02:48:42;24.10;;;20.53;;
69185;SDS011;56298;49.246;9.410;2024-01-30T02:51:07;22.80;;;17.93;;
69185;SDS011;56298;49.246;9.410;2024-01-30T02:53:33;25.00;;;18.07;;
69185;SDS011;56298;49.246;9.410;2024-01-30T02:55:58;23.30;;;18.03;;
69185;SDS011;56298;49.246;9.410;2024-01-30T02:58:23;25.67;;;18.80;;
69185;SDS011;56298;49.246;9.410;2024-01-30T03:00:48;24.37;;;18.07;;
69185;SDS011;56298;49.246;9.410;2024-01-30T03:03:14;24.30;;;17.23;;
69185;SDS011;56298;49.246;9.410;2024-01-30T03:05:39;22.70;;;16.40;;
69185;SDS011;56298;49.246;9.410;2024-01-30T03:08:04;24.47;;;17.67;;
69185;SDS011;56298;49.246;9.410;2024-01-30T03:10:30;24.23;;;17.20;;
69185;SDS011;56298;49.246;9.410;2024-01-30T03:12:55;25.10;;;17.00;;
69185;SDS011;56298;49.246;9.410;2024-01-30T03:15:20;22.47;;;16.33;;
69185;SDS011;56298;49.246;9.410;2024-01-30T03:17:45;26.30;;;19.77;;
69185;SDS011;56298;49.246;9.410;2024-01-30T03:20:11;26.17;;;20.33;;
69185;SDS011;56298;49.246;9.410;2024-01-30T03:22:36;28.20;;;20.10;;
69185;SDS011;56298;49.246;9.410;2024-01-30T03:25:01;27.37;;;19.17;;
69185;SDS011;56298;49.246;9.410;2024-01-30T03:27:27;26.00;;;18.13;;
69185;SDS011;56298;49.246;9.410;2024-01-30T03:29:52;26.03;;;20.03;;
69185;SDS011;56298;49.246;9.410;2024-01-30T03:32:17;26.30;;;20.73;;
69185;SDS011;56298;49.246;9.410;2024-01-30T03:34:43;29.47;;;21.50;;
69185;SDS011;56298;49.246;9.410;2024-01-30T03:37:08;26.60;;;22.57;;
69185;SDS011;56298;49.246;9.410;2024-01-30T03:39:33;28.93;;;23.93;;
69185;SDS011;56298;49.246;9.410;2024-01-30T03:41:58;29.67;;;24.50;;
69185;SDS011;56298;49.246;9.410;2024-01-30T03:44:24;26.90;;;22.43;;
69185;SDS011;56298;49.246;9.410;2024-01-30T03:46:49;27.63;;;22.50;;
69185;SDS011;56298;49.246;9.410;2024-01-30T03:49:14;27.55;;;20.05;;
69185;SDS011;56298;49.246;9.410;2024-01-30T03:51:40;28.10;;;21.27;;
69185;SDS011;56298;49.246;9.410;2024-01-30T03:54:05;25.80;;;21.10;;
69185;SDS011;56298;49.246;9.410;2024-01-30T03:56:30;28.20;;;22.37;;
69185;SDS011;56298;49.246;9.410;2024-01-30T03:58:55;27.43;;;22.87;;
69185;SDS011;56298;49.246;9.410;2024-01-30T04:01:21;27.60;;;23.70;;
69185;SDS011;56298;49.246;9.410;2024-01-30T04:03:47;28.63;;;23.77;;
69185;SDS011;56298;49.246;9.410;2024-01-30T04:06:12;27.60;;;22.50;;
69185;SDS011;56298;49.246;9.410;2024-01-30T04:08:37;26.63;;;20.80;;
69185;SDS011;56298;49.246;9.410;2024-01-30T04:11:03;28.03;;;21.43;;
69185;SDS011;56298;49.246;9.410;2024-01-30T04:13:30;28.37;;;23.17;;
69185;SDS011;56298;49.246;9.410;2024-01-30T04:15:56;29.77;;;22.17;;
69185;SDS011;56298;49.246;9.410;2024-01-30T04:18:21;26.63;;;20.03;;
69185;SDS011;56298;49.246;9.410;2024-01-30T04:20:46;26.93;;;19.37;;
69185;SDS011;56298;49.246;9.410;2024-01-30T04:23:11;27.97;;;20.13;;
69185;SDS011;56298;49.246;9.410;2024-01-30T04:25:37;27.97;;;22.50;;
69185;SDS011;56298;49.246;9.410;2024-01-30T04:28:02;28.97;;;23.83;;
69185;SDS011;56298;49.246;9.410;2024-01-30T04:30:29;31.33;;;23.80;;
69185;SDS011;56298;49.246;9.410;2024-01-30T04:32:54;25.87;;;22.33;;
69185;SDS011;56298;49.246;9.410;2024-01-30T04:35:20;25.35;;;20.90;;
69185;SDS011;56298;49.246;9.410;2024-01-30T04:37:48;26.13;;;21.05;;
69185;SDS011;56298;49.246;9.410;2024-01-30T04:40:13;29.93;;;21.70;;
69185;SDS011;56298;49.246;9.410;2024-01-30T04:42:38;28.38;;;22.13;;
69185;SDS011;56298;49.246;9.410;2024-01-30T04:45:05;28.40;;;22.00;;
69185;SDS011;56298;49.246;9.410;2024-01-30T04:47:30;27.48;;;21.70;;
69185;SDS011;56298;49.246;9.410;2024-01-30T04:49:56;26.20;;;20.60;;
69185;SDS011;56298;49.246;9.410;2024-01-30T04:52:21;27.23;;;22.93;;
69185;SDS011;56298;49.246;9.410;2024-01-30T04:54:46;30.87;;;25.47;;
69185;SDS011;56298;49.246;9.410;2024-01-30T04:57:11;29.60;;;26.33;;
69185;SDS011;56298;49.246;9.410;2024-01-30T04:59:37;31.43;;;27.50;;
69185;SDS011;56298;49.246;9.410;2024-01-30T05:02:02;29.00;;;25.90;;
69185;SDS011;56298;49.246;9.410;2024-01-30T05:04:28;29.23;;;25.10;;
69185;SDS011;56298;49.246;9.410;2024-01-30T05:06:53;28.23;;;23.10;;
69185;SDS011;56298;49.246;9.410;2024-01-30T05:09:18;27.73;;;24.67;;
69185;SDS011;56298;49.246;9.410;2024-01-30T05:11:44;28.97;;;24.83;;
69185;SDS011;56298;49.246;9.410;2024-01-30T05:14:09;28.47;;;25.47;;
69185;SDS011;56298;49.246;9.410;2024-01-30T05:16:35;29.20;;;26.10;;
69185;SDS011;56298;49.246;9.410;2024-01-30T05:19:01;31.60;;;28.33;;
69185;SDS011;56298;49.246;9.410;2024-01-30T05:21:26;28.43;;;25.20;;
69185;SDS011;56298;49.246;9.410;2024-01-30T05:23:51;30.10;;;26.90;;
69185;SDS011;56298;49.246;9.410;2024-01-30T05:26:17;30.53;;;27.20;;
69185;SDS011;56298;49.246;9.410;2024-01-30T05:28:42;30.77;;;26.48;;
69185;SDS011;56298;49.246;9.410;2024-01-30T05:31:09;29.02;;;25.83;;
69185;SDS011;56298;49.246;9.410;2024-01-30T05:33:35;30.85;;;27.58;;
69185;SDS011;56298;49.246;9.410;2024-01-30T05:36:00;30.03;;;26.63;;
69185;SDS011;56298;49.246;9.410;2024-01-30T05:38:25;29.20;;;25.97;;
69185;SDS011;56298;49.246;9.410;2024-01-30T05:40:50;31.23;;;27.37;;
69185;SDS011;56298;49.246;9.410;2024-01-30T05:43:16;28.93;;;25.57;;
69185;SDS011;56298;49.246;9.410;2024-01-30T05:45:41;30.13;;;26.80;;
69185;SDS011;56298;49.246;9.410;2024-01-30T05:48:06;30.23;;;27.03;;
69185;SDS011;56298;49.246;9.410;2024-01-30T05:50:31;32.50;;;28.27;;
69185;SDS011;56298;49.246;9.410;2024-01-30T05:52:57;31.10;;;27.70;;
69185;SDS011;56298;49.246;9.410;2024-01-30T05:55:22;30.77;;;27.57;;
69185;SDS011;56298;49.246;9.410;2024-01-30T05:57:47;31.37;;;26.60;;
69185;SDS011;56298;49.246;9.410;2024-01-30T06:00:13;29.70;;;26.57;;
69185;SDS011;56298;49.246;9.410;2024-01-30T06:02:38;30.03;;;26.80;;
69185;SDS011;56298;49.246;9.410;2024-01-30T06:05:03;28.60;;;25.40;;
69185;SDS011;56298;49.246;9.410;2024-01-30T06:07:29;30.20;;;27.10;;
69185;SDS011;56298;49.246;9.410;2024-01-30T06:09:54;28.03;;;24.90;;
69185;SDS011;56298;49.246;9.410;2024-01-30T06:12:19;30.13;;;27.00;;
69185;SDS011;56298;49.246;9.410;2024-01-30T06:14:46;30.73;;;26.53;;
69185;SDS011;56298;49.246;9.410;2024-01-30T06:17:11;28.42;;;23.85;;
69185;SDS011;56298;49.246;9.410;2024-01-30T06:19:37;31.13;;;27.83;;
69185;SDS011;56298;49.246;9.410;2024-01-30T06:22:05;30.60;;;26.20;;
69185;SDS011;56298;49.246;9.410;2024-01-30T06:24:31;29.03;;;25.93;;
69185;SDS011;56298;49.246;9.410;2024-01-30T06:26:56;29.53;;;26.13;;
69185;SDS011;56298;49.246;9.410;2024-01-30T06:29:21;27.50;;;22.60;;
69185;SDS011;56298;49.246;9.410;2024-01-30T06:31:49;28.02;;;24.92;;
69185;SDS011;56298;49.246;9.410;2024-01-30T06:34:15;31.30;;;26.47;;
69185;SDS011;56298;49.246;9.410;2024-01-30T06:36:40;28.83;;;23.83;;
69185;SDS011;56298;49.246;9.410;2024-01-30T06:39:05;26.90;;;22.23;;
69185;SDS011;56298;49.246;9.410;2024-01-30T06:41:32;29.23;;;23.73;;
69185;SDS011;56298;49.246;9.410;2024-01-30T06:43:57;26.10;;;23.03;;
69185;SDS011;56298;49.246;9.410;2024-01-30T06:46:22;26.43;;;22.83;;
69185;SDS011;56298;49.246;9.410;2024-01-30T06:48:47;27.63;;;22.40;;
69185;SDS011;56298;49.246;9.410;2024-01-30T06:51:13;28.55;;;24.25;;
69185;SDS011;56298;49.246;9.410;2024-01-30T06:53:38;27.70;;;23.50;;
69185;SDS011;56298;49.246;9.410;2024-01-30T06:56:03;28.37;;;23.43;;
69185;SDS011;56298;49.246;9.410;2024-01-30T06:58:29;30.77;;;24.77;;
69185;SDS011;56298;49.246;9.410;2024-01-30T07:00:54;29.07;;;24.43;;
69185;SDS011;56298;49.246;9.410;2024-01-30T07:03:20;27.23;;;23.02;;
69185;SDS011;56298;49.246;9.410;2024-01-30T07:05:46;27.02;;;23.10;;
69185;SDS011;56298;49.246;9.410;2024-01-30T07:08:11;28.43;;;21.80;;
69185;SDS011;56298;49.246;9.410;2024-01-30T07:10:37;29.87;;;23.80;;
69185;SDS011;56298;49.246;9.410;2024-01-30T07:13:02;24.93;;;22.13;;
69185;SDS011;56298;49.246;9.410;2024-01-30T07:15:31;27.70;;;23.85;;
69185;SDS011;56298;49.246;9.410;2024-01-30T07:17:56;26.95;;;24.15;;
69185;SDS011;56298;49.246;9.410;2024-01-30T07:20:22;26.90;;;23.73;;
69185;SDS011;56298;49.246;9.410;2024-01-30T07:22:47;28.93;;;24.93;;
69185;SDS011;56298;49.246;9.410;2024-01-30T07:25:13;29.25;;;24.42;;
69185;SDS011;56298;49.246;9.410;2024-01-30T07:27:38;30.40;;;24.83;;
69185;SDS011;56298;49.246;9.410;2024-01-30T07:30:03;30.00;;;25.10;;
69185;SDS011;56298;49.246;9.410;2024-01-30T07:32:29;27.45;;;23.17;;
69185;SDS011;56298;49.246;9.410;2024-01-30T07:34:55;27.50;;;22.63;;
69185;SDS011;56298;49.246;9.410;2024-01-30T07:37:20;25.90;;;20.03;;
69185;SDS011;56298;49.246;9.410;2024-01-30T07:39:45;26.73;;;17.87;;
69185;SDS011;56298;49.246;9.410;2024-01-30T07:42:11;24.60;;;18.37;;
69185;SDS011;56298;49.246;9.410;2024-01-30T07:44:36;25.70;;;20.07;;
69185;SDS011;56298;49.246;9.410;2024-01-30T07:47:01;24.63;;;18.37;;
69185;SDS011;56298;49.246;9.410;2024-01-30T07:52:21;25.50;;;19.10;;
69185;SDS011;56298;49.246;9.410;2024-01-30T07:54:46;24.70;;;16.53;;
69185;SDS011;56298;49.246;9.410;2024-01-30T07:57:11;22.77;;;17.73;;
69185;SDS011;56298;49.246;9.410;2024-01-30T07:59:36;24.77;;;17.03;;
69185;SDS011;56298;49.246;9.410;2024-01-30T08:02:02;25.60;;;15.57;;
69185;SDS011;56298;49.246;9.410;2024-01-30T08:04:27;22.90;;;14.10;;
69185;SDS011;56298;49.246;9.410;2024-01-30T08:06:52;22.40;;;12.93;;
69185;SDS011;56298;49.246;9.410;2024-01-30T08:09:18;22.13;;;13.73;;
69185;SDS011;56298;49.246;9.410;2024-01-30T08:11:43;23.10;;;12.60;;
69185;SDS011;56298;49.246;9.410;2024-01-30T08:14:08;22.67;;;12.83;;
69185;SDS011;56298;49.246;9.410;2024-01-30T08:16:34;23.40;;;12.82;;
69185;SDS011;56298;49.246;9.410;2024-01-30T08:18:59;18.57;;;11.70;;
69185;SDS011;56298;49.246;9.410;2024-01-30T08:21:24;23.00;;;13.17;;
69185;SDS011;56298;49.246;9.410;2024-01-30T08:23:49;21.13;;;12.30;;
69185;SDS011;56298;49.246;9.410;2024-01-30T08:26:15;22.07;;;12.80;;
69185;SDS011;56298;49.246;9.410;2024-01-30T08:28:40;21.40;;;12.32;;
69185;SDS011;56298;49.246;9.410;2024-01-30T08:31:05;19.83;;;12.40;;
69185;SDS011;56298;49.246;9.410;2024-01-30T08:33:30;21.33;;;12.47;;
69185;SDS011;56298;49.246;9.410;2024-01-30T08:35:56;21.17;;;12.73;;
69185;SDS011;56298;49.246;9.410;2024-01-30T08:38:22;20.17;;;12.43;;
69185;SDS011;56298;49.246;9.410;2024-01-30T08:40:47;22.70;;;12.63;;
69185;SDS011;56298;49.246;9.410;2024-01-30T08:43:12;23.07;;;13.00;;
69185;SDS011;56298;49.246;9.410;2024-01-30T08:45:37;21.27;;;12.73;;
69185;SDS011;56298;49.246;9.410;2024-01-30T08:48:03;22.70;;;12.30;;
69185;SDS011;56298;49.246;9.410;2024-01-30T08:50:28;22.58;;;12.60;;
69185;SDS011;56298;49.246;9.410;2024-01-30T08:52:54;23.05;;;12.73;;
69185;SDS011;56298;49.246;9.410;2024-01-30T08:55:20;22.13;;;12.80;;
69185;SDS011;56298;49.246;9.410;2024-01-30T08:57:45;23.33;;;12.87;;
69185;SDS011;56298;49.246;9.410;2024-01-30T09:00:10;19.10;;;12.00;;
69185;SDS011;56298;49.246;9.410;2024-01-30T09:02:36;19.75;;;12.00;;
69185;SDS011;56298;49.246;9.410;2024-01-30T09:05:01;20.20;;;11.53;;
69185;SDS011;56298;49.246;9.410;2024-01-30T09:07:27;19.13;;;11.60;;
69185;SDS011;56298;49.246;9.410;2024-01-30T09:09:52;20.33;;;11.63;;
69185;SDS011;56298;49.246;9.410;2024-01-30T09:12:17;20.25;;;11.65;;
69185;SDS011;56298;49.246;9.410;2024-01-30T09:14:43;18.53;;;11.33;;
69185;SDS011;56298;49.246;9.410;2024-01-30T09:17:08;18.90;;;11.60;;
69185;SDS011;56298;49.246;9.410;2024-01-30T09:19:33;19.97;;;11.60;;
69185;SDS011;56298;49.246;9.410;2024-01-30T09:21:59;17.70;;;11.77;;
69185;SDS011;56298;49.246;9.410;2024-01-30T09:24:24;18.03;;;11.70;;
69185;SDS011;56298;49.246;9.410;2024-01-30T09:26:50;20.83;;;12.23;;
69185;SDS011;56298;49.246;9.410;2024-01-30T09:29:15;24.87;;;15.37;;
69185;SDS011;56298;49.246;9.410;2024-01-30T09:31:44;25.03;;;13.97;;
69185;SDS011;56298;49.246;9.410;2024-01-30T09:34:10;19.73;;;12.82;;
69185;SDS011;56298;49.246;9.410;2024-01-30T09:36:35;20.90;;;12.80;;
69185;SDS011;56298;49.246;9.410;2024-01-30T09:39:00;19.23;;;11.90;;
69185;SDS011;56298;49.246;9.410;2024-01-30T09:41:26;20.17;;;12.43;;
69185;SDS011;56298;49.246;9.410;2024-01-30T09:43:52;20.50;;;12.73;;
69185;SDS011;56298;49.246;9.410;2024-01-30T09:46:19;19.55;;;12.70;;
69185;SDS011;56298;49.246;9.410;2024-01-30T09:48:46;21.73;;;13.13;;
69185;SDS011;56298;49.246;9.410;2024-01-30T09:51:13;20.70;;;12.90;;
69185;SDS011;56298;49.246;9.410;2024-01-30T09:53:40;20.33;;;12.90;;
69185;SDS011;56298;49.246;9.410;2024-01-30T09:56:06;20.85;;;13.05;;
69185;SDS011;56298;49.246;9.410;2024-01-30T09:58:32;19.52;;;12.98;;
69185;SDS011;56298;49.246;9.410;2024-01-30T10:00:58;20.53;;;13.27;;
69185;SDS011;56298;49.246;9.410;2024-01-30T10:03:23;20.73;;;12.93;;
69185;SDS011;56298;49.246;9.410;2024-01-30T10:05:51;20.20;;;12.60;;
69185;SDS011;56298;49.246;9.410;2024-01-30T10:08:20;21.08;;;13.35;;
69185;SDS011;56298;49.246;9.410;2024-01-30T10:10:49;21.37;;;12.80;;
69185;SDS011;56298;49.246;9.410;2024-01-30T10:13:15;18.95;;;12.18;;
69185;SDS011;56298;49.246;9.410;2024-01-30T10:15:40;17.15;;;11.68;;
69185;SDS011;56298;49.246;9.410;2024-01-30T10:18:06;18.60;;;12.37;;
69185;SDS011;56298;49.246;9.410;2024-01-30T10:20:32;19.17;;;11.80;;
69185;SDS011;56298;49.246;9.410;2024-01-30T10:22:57;20.73;;;12.55;;
69185;SDS011;56298;49.246;9.410;2024-01-30T10:25:23;18.52;;;11.90;;
69185;SDS011;56298;49.246;9.410;2024-01-30T10:27:52;17.92;;;12.10;;
69185;SDS011;56298;49.246;9.410;2024-01-30T10:30:19;19.70;;;12.30;;
69185;SDS011;56298;49.246;9.410;2024-01-30T10:32:44;20.53;;;12.33;;
69185;SDS011;56298;49.246;9.410;2024-01-30T10:35:09;19.07;;;12.27;;
69185;SDS011;56298;49.246;9.410;2024-01-30T10:37:35;21.03;;;12.57;;
69185;SDS011;56298;49.246;9.410;2024-01-30T10:40:02;19.70;;;12.10;;
69185;SDS011;56298;49.246;9.410;2024-01-30T10:42:31;22.33;;;12.27;;
69185;SDS011;56298;49.246;9.410;2024-01-30T10:45:07;20.65;;;11.95;;
69185;SDS011;56298;49.246;9.410;2024-01-30T10:47:36;20.17;;;12.25;;
69185;SDS011;56298;49.246;9.410;2024-01-30T10:50:02;20.17;;;12.32;;
69185;SDS011;56298;49.246;9.410;2024-01-30T10:52:31;17.45;;;11.73;;
69185;SDS011;56298;49.246;9.410;2024-01-30T10:54:57;19.00;;;12.23;;
69185;SDS011;56298;49.246;9.410;2024-01-30T10:57:23;19.67;;;12.27;;
69185;SDS011;56298;49.246;9.410;2024-01-30T10:59:49;18.02;;;11.73;;
69185;SDS011;56298;49.246;9.410;2024-01-30T11:02:17;18.43;;;11.80;;
69185;SDS011;56298;49.246;9.410;2024-01-30T11:04:43;18.92;;;12.07;;
69185;SDS011;56298;49.246;9.410;2024-01-30T11:07:14;18.55;;;12.05;;
69185;SDS011;56298;49.246;9.410;2024-01-30T11:09:52;17.88;;;11.93;;
69185;SDS011;56298;49.246;9.410;2024-01-30T11:12:25;19.05;;;13.05;;
69185;SDS011;56298;49.246;9.410;2024-01-30T11:15:10;20.38;;;12.52;;
69185;SDS011;56298;49.246;9.410;2024-01-30T11:20:21;18.50;;;12.07;;
69185;SDS011;56298;49.246;9.410;2024-01-30T11:22:56;18.98;;;12.80;;
69185;SDS011;56298;49.246;9.410;2024-01-30T11:25:22;20.83;;;12.48;;
69185;SDS011;56298;49.246;9.410;2024-01-30T11:27:52;20.37;;;12.90;;
69185;SDS011;56298;49.246;9.410;2024-01-30T11:30:22;18.98;;;12.70;;
69185;SDS011;56298;49.246;9.410;2024-01-30T11:33:00;21.75;;;13.57;;
69185;SDS011;56298;49.246;9.410;2024-01-30T11:35:30;22.00;;;13.88;;
69185;SDS011;56298;49.246;9.410;2024-01-30T11:37:57;24.33;;;13.80;;
69185;SDS011;56298;49.246;9.410;2024-01-30T11:40:24;22.50;;;13.57;;
69185;SDS011;56298;49.246;9.410;2024-01-30T11:42:55;18.48;;;12.60;;
69185;SDS011;56298;49.246;9.410;2024-01-30T11:45:23;18.93;;;12.10;;
69185;SDS011;56298;49.246;9.410;2024-01-30T11:47:48;23.07;;;14.20;;
69185;SDS011;56298;49.246;9.410;2024-01-30T11:50:14;23.25;;;13.52;;
69185;SDS011;56298;49.246;9.410;2024-01-30T11:52:39;41.22;;;17.52;;
69185;SDS011;56298;49.246;9.410;2024-01-30T11:55:05;52.63;;;22.80;;
69185;SDS011;56298;49.246;9.410;2024-01-30T11:57:31;30.90;;;15.23;;
69185;SDS011;56298;49.246;9.410;2024-01-30T11:59:56;20.23;;;12.23;;
69185;SDS011;56298;49.246;9.410;2024-01-30T12:02:21;17.50;;;11.40;;
69185;SDS011;56298;49.246;9.410;2024-01-30T12:04:47;18.60;;;11.53;;
69185;SDS011;56298;49.246;9.410;2024-01-30T12:07:12;18.37;;;12.00;;
69185;SDS011;56298;49.246;9.410;2024-01-30T12:09:40;19.38;;;14.10;;
69185;SDS011;56298;49.246;9.410;2024-01-30T12:12:06;18.57;;;11.67;;
69185;SDS011;56298;49.246;9.410;2024-01-30T12:14:32;18.55;;;11.25;;
69185;SDS011;56298;49.246;9.410;2024-01-30T12:16:57;17.60;;;11.97;;
69185;SDS011;56298;49.246;9.410;2024-01-30T12:19:26;17.80;;;12.03;;
69185;SDS011;56298;49.246;9.410;2024-01-30T12:21:55;19.40;;;12.25;;
69185;SDS011;56298;49.246;9.410;2024-01-30T12:24:23;17.20;;;11.77;;
69185;SDS011;56298;49.246;9.410;2024-01-30T12:26:49;19.27;;;11.50;;
69185;SDS011;56298;49.246;9.410;2024-01-30T12:29:14;20.80;;;11.87;;
69185;SDS011;56298;49.246;9.410;2024-01-30T12:31:41;18.83;;;12.80;;
69185;SDS011;56298;49.246;9.410;2024-01-30T12:34:07;18.77;;;12.17;;
69185;SDS011;56298;49.246;9.410;2024-01-30T12:36:32;18.53;;;11.80;;
69185;SDS011;56298;49.246;9.410;2024-01-30T12:38:58;19.67;;;12.38;;
69185;SDS011;56298;49.246;9.410;2024-01-30T12:41:25;19.70;;;12.50;;
69185;SDS011;56298;49.246;9.410;2024-01-30T12:43:54;20.23;;;13.35;;
69185;SDS011;56298;49.246;9.410;2024-01-30T12:46:21;18.25;;;12.00;;
69185;SDS011;56298;49.246;9.410;2024-01-30T12:48:49;17.42;;;12.05;;
69185;SDS011;56298;49.246;9.410;2024-01-30T12:51:15;16.80;;;11.50;;
69185;SDS011;56298;49.246;9.410;2024-01-30T12:53:40;20.07;;;13.23;;
69185;SDS011;56298;49.246;9.410;2024-01-30T12:56:05;19.43;;;14.07;;
69185;SDS011;56298;49.246;9.410;2024-01-30T12:58:31;22.37;;;14.90;;
69185;SDS011;56298;49.246;9.410;2024-01-30T13:00:56;21.60;;;15.00;;
69185;SDS011;56298;49.246;9.410;2024-01-30T13:03:21;22.70;;;14.83;;
69185;SDS011;56298;49.246;9.410;2024-01-30T13:05:47;23.45;;;15.60;;
69185;SDS011;56298;49.246;9.410;2024-01-30T13:08:12;25.00;;;15.83;;
69185;SDS011;56298;49.246;9.410;2024-01-30T13:10:37;22.23;;;15.57;;
69185;SDS011;56298;49.246;9.410;2024-01-30T13:13:03;23.07;;;15.20;;
69185;SDS011;56298;49.246;9.410;2024-01-30T13:15:28;25.13;;;14.97;;
69185;SDS011;56298;49.246;9.410;2024-01-30T13:17:56;22.67;;;15.10;;
69185;SDS011;56298;49.246;9.410;2024-01-30T13:20:21;22.33;;;14.85;;
69185;SDS011;56298;49.246;9.410;2024-01-30T13:22:47;21.58;;;14.30;;
69185;SDS011;56298;49.246;9.410;2024-01-30T13:25:16;19.90;;;13.33;;
69185;SDS011;56298;49.246;9.410;2024-01-30T13:27:41;20.25;;;14.00;;
69185;SDS011;56298;49.246;9.410;2024-01-30T13:30:06;20.37;;;13.17;;
69185;SDS011;56298;49.246;9.410;2024-01-30T13:32:34;20.47;;;13.97;;
69185;SDS011;56298;49.246;9.410;2024-01-30T13:34:59;21.07;;;14.47;;
69185;SDS011;56298;49.246;9.410;2024-01-30T13:37:24;21.37;;;13.73;;
69185;SDS011;56298;49.246;9.410;2024-01-30T13:39:50;22.70;;;14.03;;
69185;SDS011;56298;49.246;9.410;2024-01-30T13:42:15;21.47;;;13.90;;
69185;SDS011;56298;49.246;9.410;2024-01-30T13:44:40;19.13;;;13.53;;
69185;SDS011;56298;49.246;9.410;2024-01-30T13:47:06;22.90;;;14.90;;
69185;SDS011;56298;49.246;9.410;2024-01-30T13:49:31;25.13;;;15.43;;
69185;SDS011;56298;49.246;9.410;2024-01-30T13:51:56;21.38;;;13.95;;
69185;SDS011;56298;49.246;9.410;2024-01-30T13:54:21;24.13;;;15.17;;
69185;SDS011;56298;49.246;9.410;2024-01-30T13:56:47;20.40;;;13.77;;
69185;SDS011;56298;49.246;9.410;2024-01-30T13:59:12;19.07;;;12.93;;
69185;SDS011;56298;49.246;9.410;2024-01-30T14:01:37;19.17;;;12.80;;
69185;SDS011;56298;49.246;9.410;2024-01-30T14:04:02;18.27;;;12.60;;
69185;SDS011;56298;49.246;9.410;2024-01-30T14:06:28;19.00;;;12.53;;
69185;SDS011;56298;49.246;9.410;2024-01-30T14:08:53;18.13;;;11.93;;
69185;SDS011;56298;49.246;9.410;2024-01-30T14:11:18;15.13;;;10.93;;
69185;SDS011;56298;49.246;9.410;2024-01-30T14:13:44;19.30;;;12.35;;
69185;SDS011;56298;49.246;9.410;2024-01-30T14:16:09;17.27;;;11.20;;
69185;SDS011;56298;49.246;9.410;2024-01-30T14:18:34;20.53;;;13.57;;
69185;SDS011;56298;49.246;9.410;2024-01-30T14:21:00;23.53;;;15.40;;